Time;durP1;ratioP1;P1;durP2;ratioP2;P2;SDS_P1;SDS_P2;PMS_P1;PMS_P2;Temp;Humidity;BMP_temperature;BMP_pressure;BME280_temperature;BME280_humidity;BME280_pressure;Samples;Min_cycle;Max_cycle;Signal;HPM_P1;HPM_P2
2021/10/23 00:00:30;;;;;;;4.50;1.73;;;;;;;-145.69;100.00;73159.84;5134028;27;20192;-81
2021/10/23 00:02:57;;;;;;;5.23;1.67;;;;;;;-145.69;100.00;73163.81;5134891;27;20200;-81
2021/10/23 00:05:23;;;;;;;6.20;1.53;;;;;;;-145.69;100.00;73151.88;5134546;27;20647;-81
2021/10/23 00:07:50;;;;;;;7.37;2.23;;;;;;;-145.69;100.00;73141.91;5134595;27;20562;-81
2021/10/23 00:10:17;;;;;;;8.43;2.57;;;;;;;-145.69;100.00;73131.97;5153436;27;20532;-81
2021/10/23 00:12:44;;;;;;;3.90;1.80;;;;;;;-145.69;100.00;73151.88;5155203;27;20254;-81
2021/10/23 00:15:12;;;;;;;8.10;2.10;;;;;;;-145.69;100.00;73137.94;5151852;27;20199;-81
2021/10/23 00:17:41;;;;;;;9.03;2.17;;;;;;;-145.69;100.00;73129.97;5155245;27;20219;-81
2021/10/23 00:20:09;;;;;;;7.33;2.00;;;;;;;-145.69;100.00;73104.09;5155103;27;20199;-80
2021/10/23 00:22:36;;;;;;;2.63;1.70;;;;;;;-145.69;100.00;73098.13;5155351;27;20228;-80
2021/10/23 00:25:03;;;;;;;4.87;1.63;;;;;;;-145.69;100.00;73092.16;5155086;27;20200;-80
2021/10/23 00:27:29;;;;;;;6.70;1.83;;;;;;;-145.69;100.00;73086.19;5154970;27;20203;-80
2021/10/23 00:29:59;;;;;;;6.83;2.50;;;;;;;-145.69;100.00;73084.19;5154896;27;20200;-80
2021/10/23 00:32:25;;;;;;;4.37;1.83;;;;;;;-145.69;100.00;73088.16;5154790;27;20227;-80
2021/10/23 00:34:53;;;;;;;5.97;1.80;;;;;;;-145.69;100.00;73102.09;5155098;27;20207;-80
2021/10/23 00:37:20;;;;;;;4.30;1.27;;;;;;;-145.69;100.00;73102.09;5154879;27;20658;-80
2021/10/23 00:39:46;;;;;;;6.17;1.70;;;;;;;-145.69;100.00;73102.09;5155038;27;20543;-80
2021/10/23 00:42:15;;;;;;;7.87;2.00;;;;;;;-145.69;100.00;73086.19;5154864;27;20200;-80
2021/10/23 00:44:43;;;;;;;9.77;1.93;;;;;;;-145.69;100.00;73074.22;5154766;27;20600;-80
2021/10/23 00:47:12;;;;;;;4.70;1.60;;;;;;;-145.69;100.00;73066.25;5154676;27;20200;-80
2021/10/23 00:49:39;;;;;;;8.70;1.37;;;;;;;-145.69;100.00;73070.25;5154593;27;20677;-81
2021/10/23 00:52:08;;;;;;;2.60;1.30;;;;;;;-145.69;100.00;73066.25;5154524;27;20226;-80
2021/10/23 00:54:36;;;;;;;5.93;1.60;;;;;;;-145.69;100.00;73058.31;5154704;27;20248;-80
2021/10/23 00:57:04;;;;;;;11.07;1.70;;;;;;;-145.69;100.00;73054.31;5154737;27;20200;-80
2021/10/23 00:59:31;;;;;;;8.23;2.00;;;;;;;-145.69;100.00;73042.38;5154590;27;20585;-80
2021/10/23 01:01:57;;;;;;;5.40;1.63;;;;;;;-145.69;100.00;73030.44;5154752;27;20199;-81
2021/10/23 01:04:25;;;;;;;7.67;1.70;;;;;;;-145.69;100.00;73018.50;5154816;27;20204;-80
2021/10/23 01:06:53;;;;;;;5.90;1.57;;;;;;;-145.69;100.00;73022.47;5154627;27;20203;-80
2021/10/23 01:09:21;;;;;;;6.37;1.40;;;;;;;-145.69;100.00;73042.38;5154618;27;20200;-80
2021/10/23 01:11:49;;;;;;;7.77;1.70;;;;;;;-145.69;100.00;73050.34;5154602;27;20226;-80
2021/10/23 01:14:17;;;;;;;5.37;1.30;;;;;;;-145.69;100.00;73054.31;5154259;27;20276;-81
2021/10/23 01:16:45;;;;;;;3.80;1.23;;;;;;;-145.69;100.00;73060.28;5154427;27;20749;-81
2021/10/23 01:19:12;;;;;;;6.50;1.50;;;;;;;-145.69;100.00;73066.25;5154234;27;20219;-81
2021/10/23 01:21:41;;;;;;;2.83;1.30;;;;;;;-145.69;100.00;73074.22;5154640;27;20200;-81
2021/10/23 01:24:09;;;;;;;4.13;1.50;;;;;;;-145.69;100.00;73064.28;5154495;27;20642;-80
2021/10/23 01:26:37;;;;;;;6.53;1.53;;;;;;;-145.69;100.00;73060.28;5154426;27;20483;-81
2021/10/23 01:29:04;;;;;;;7.43;1.50;;;;;;;-145.69;100.00;73054.31;5154402;27;20196;-80
2021/10/23 01:31:31;;;;;;;4.63;1.70;;;;;;;-145.69;100.00;73050.34;5154430;27;20203;-81
2021/10/23 01:33:57;;;;;;;7.47;1.90;;;;;;;-145.69;100.00;73046.34;5154190;27;20231;-81
2021/10/23 01:36:24;;;;;;;5.70;1.67;;;;;;;-145.69;100.00;73054.31;5153499;27;20820;-80
2021/10/23 01:38:52;;;;;;;4.27;1.47;;;;;;;-145.69;100.00;73070.25;5156277;27;20663;-80
2021/10/23 01:41:19;;;;;;;6.03;1.87;;;;;;;-145.69;100.00;73070.25;5158166;27;20199;-81
2021/10/23 01:43:45;;;;;;;3.93;1.70;;;;;;;-145.69;100.00;73070.25;5158154;27;20199;-80
2021/10/23 01:46:12;;;;;;;6.70;1.60;;;;;;;-145.69;100.00;73082.19;5158128;27;20202;-80
2021/10/23 01:48:38;;;;;;;5.00;1.30;;;;;;;-145.69;100.00;73102.09;5158138;27;20279;-81
2021/10/23 01:51:05;;;;;;;3.20;1.40;;;;;;;-145.69;100.00;73110.06;5157676;27;20749;-80
2021/10/23 01:53:32;;;;;;;6.07;1.70;;;;;;;-145.69;100.00;73129.97;5157929;27;20224;-80
2021/10/23 01:56:00;;;;;;;3.73;1.40;;;;;;;-145.69;100.00;73141.91;5157821;27;20246;-80
2021/10/23 01:58:27;;;;;;;4.47;1.43;;;;;;;-145.69;100.00;73153.84;5157989;27;20286;-81
2021/10/23 02:00:53;;;;;;;3.87;1.43;;;;;;;-145.69;100.00;73165.81;5157636;27;20227;-80
2021/10/23 02:03:20;;;;;;;6.57;1.60;;;;;;;-145.69;100.00;73161.81;5157966;27;20200;-81
2021/10/23 02:05:46;;;;;;;4.73;1.83;;;;;;;-145.69;100.00;73145.91;5157715;27;20562;-81
2021/10/23 02:08:13;;;;;;;5.07;1.53;;;;;;;-145.69;100.00;73129.97;5157585;27;20204;-80
2021/10/23 02:10:39;;;;;;;8.30;2.20;;;;;;;-145.69;100.00;73129.97;5157508;27;20252;-81
2021/10/23 02:13:07;;;;;;;5.67;1.90;;;;;;;-145.69;100.00;73122.00;5157597;27;20306;-81
2021/10/23 02:15:34;;;;;;;5.13;1.67;;;;;;;-145.69;100.00;73118.03;5157598;27;20604;-81
2021/10/23 02:18:00;;;;;;;13.37;1.70;;;;;;;-145.69;100.00;73100.09;5157540;27;20203;-81
2021/10/23 02:20:32;;;;;;;10.43;1.87;;;;;;;-145.69;100.00;73098.13;5157273;27;20292;-81
2021/10/23 02:22:59;;;;;;;4.70;1.53;;;;;;;-145.69;100.00;73108.06;5157187;27;20221;-80
2021/10/23 02:25:25;;;;;;;7.13;1.60;;;;;;;-145.69;100.00;73118.03;5153726;27;20673;-81
2021/10/23 02:27:52;;;;;;;10.70;1.70;;;;;;;-145.69;100.00;73114.03;5157486;27;20193;-81
2021/10/23 02:30:20;;;;;;;6.27;2.20;;;;;;;-145.69;100.00;73120.00;5157264;27;20196;-81
2021/10/23 02:32:46;;;;;;;5.20;1.30;;;;;;;-145.69;100.00;73124.00;5157036;27;20561;-81
2021/10/23 02:35:13;;;;;;;8.00;1.60;;;;;;;-145.69;100.00;73118.03;5157098;27;20291;-81
2021/10/23 02:37:39;;;;;;;4.43;1.60;;;;;;;-145.69;100.00;73122.00;5156986;27;20199;-81
2021/10/23 02:40:07;;;;;;;6.50;1.57;;;;;;;-145.69;100.00;73122.00;5157186;27;20196;-81
2021/10/23 02:42:35;;;;;;;4.07;1.47;;;;;;;-145.69;100.00;73114.03;5157076;27;20288;-81
2021/10/23 02:45:01;;;;;;;2.30;1.27;;;;;;;-145.69;100.00;73118.03;5156893;27;20207;-81
2021/10/23 02:47:29;;;;;;;7.27;1.97;;;;;;;-145.69;100.00;73120.00;5156865;27;20642;-81
2021/10/23 02:49:56;;;;;;;4.27;2.00;;;;;;;-145.69;100.00;73122.00;5156623;27;20200;-81
2021/10/23 02:52:22;;;;;;;4.77;1.73;;;;;;;-145.69;100.00;73116.03;5156489;27;20709;-81
2021/10/23 02:54:51;;;;;;;5.33;1.97;;;;;;;-145.69;100.00;73122.00;5156732;27;20224;-81
2021/10/23 02:57:18;;;;;;;3.93;1.57;;;;;;;-145.69;100.00;73122.00;5156495;27;20669;-81
2021/10/23 02:59:44;;;;;;;8.87;1.63;;;;;;;-145.69;100.00;73129.97;5156359;27;20585;-80
2021/10/23 03:02:11;;;;;;;4.77;1.60;;;;;;;-145.69;100.00;73129.97;5156539;27;20203;-81
2021/10/23 03:04:39;;;;;;;2.80;1.47;;;;;;;-145.69;100.00;73133.94;5156408;27;20718;-81
2021/10/23 03:07:06;;;;;;;7.80;1.50;;;;;;;-145.69;100.00;73135.94;5156377;27;20670;-82
2021/10/23 03:09:32;;;;;;;9.10;2.47;;;;;;;-145.69;100.00;73114.03;5156159;27;20203;-81
2021/10/23 03:11:59;;;;;;;10.63;2.10;;;;;;;-145.69;100.00;73118.03;5156538;27;20199;-80
2021/10/23 03:14:26;;;;;;;7.47;1.40;;;;;;;-145.69;100.00;73110.06;5156089;27;20231;-81
2021/10/23 03:16:52;;;;;;;3.37;1.33;;;;;;;-145.69;100.00;73112.06;5156345;27;20203;-81
2021/10/23 03:19:21;;;;;;;5.63;1.43;;;;;;;-145.69;100.00;73110.06;5156048;27;20200;-81
2021/10/23 03:21:49;;;;;;;5.50;1.73;;;;;;;-145.69;100.00;73110.06;5156262;27;20248;-81
2021/10/23 03:24:16;;;;;;;7.57;1.70;;;;;;;-145.69;100.00;73106.09;5156112;27;20249;-82
2021/10/23 03:26:42;;;;;;;8.97;1.70;;;;;;;-145.69;100.00;73120.00;5156054;27;20204;-81
2021/10/23 03:29:09;;;;;;;3.90;1.70;;;;;;;-145.69;100.00;73129.97;5156017;27;20199;-81
2021/10/23 03:31:35;;;;;;;5.00;1.47;;;;;;;-145.69;100.00;73131.97;5155601;27;20207;-81
2021/10/23 03:34:02;;;;;;;3.80;1.60;;;;;;;-145.69;100.00;73126.00;5155788;27;20646;-81
2021/10/23 03:36:28;;;;;;;5.63;1.57;;;;;;;-145.69;100.00;73133.94;5155908;27;20204;-81
2021/10/23 03:38:56;;;;;;;4.20;1.60;;;;;;;-145.69;100.00;73122.00;5155854;27;20291;-81
2021/10/23 03:41:26;;;;;;;6.80;1.63;;;;;;;-145.69;100.00;73126.00;5155776;27;20196;-81
2021/10/23 03:43:52;;;;;;;4.63;1.40;;;;;;;-145.69;100.00;73129.97;5155573;27;20222;-81
2021/10/23 03:46:19;;;;;;;2.67;1.23;;;;;;;-145.69;100.00;73129.97;5155594;27;20642;-81
2021/10/23 03:48:45;;;;;;;5.60;1.47;;;;;;;-145.69;100.00;73126.00;5155495;27;20200;-81
2021/10/23 03:51:12;;;;;;;3.87;1.40;;;;;;;-145.69;100.00;73122.00;5155313;27;20228;-81
2021/10/23 03:53:38;;;;;;;6.80;1.20;;;;;;;-145.69;100.00;73129.97;5155519;27;20230;-81
2021/10/23 03:56:06;;;;;;;7.07;1.50;;;;;;;-145.69;100.00;73122.00;5155355;27;20204;-81
2021/10/23 03:58:33;;;;;;;4.77;1.30;;;;;;;-145.69;100.00;73120.00;5155427;27;20207;-82
2021/10/23 04:00:59;;;;;;;10.37;1.70;;;;;;;-145.69;100.00;73110.06;5154658;27;20200;-81
2021/10/23 04:03:26;;;;;;;7.33;1.53;;;;;;;-145.69;100.00;73118.03;5155648;27;20203;-81
2021/10/23 04:05:52;;;;;;;7.70;1.47;;;;;;;-145.69;100.00;73114.03;5155294;27;20231;-81
2021/10/23 04:08:19;;;;;;;7.33;1.67;;;;;;;-145.69;100.00;73120.00;5155156;27;20237;-81
2021/10/23 04:10:46;;;;;;;3.97;1.70;;;;;;;-145.69;100.00;73118.03;5154997;27;20674;-81
2021/10/23 04:13:14;;;;;;;4.50;1.37;;;;;;;-145.69;100.00;73114.03;5155048;27;20562;-81
2021/10/23 04:15:40;;;;;;;9.40;1.77;;;;;;;-145.69;100.00;73110.06;5151400;27;20597;-80
2021/10/23 04:18:07;;;;;;;6.37;1.77;;;;;;;-145.69;100.00;73102.09;5155107;27;20200;-80
2021/10/23 04:20:33;;;;;;;7.77;1.50;;;;;;;-145.69;100.00;73096.13;5155016;27;20280;-81
2021/10/23 04:23:00;;;;;;;4.63;1.60;;;;;;;-145.69;100.00;73086.19;5155049;27;20196;-81
2021/10/23 04:25:27;;;;;;;5.83;2.10;;;;;;;-145.69;100.00;73090.16;5154841;27;20208;-80
2021/10/23 04:27:53;;;;;;;5.40;1.47;;;;;;;-145.69;100.00;73094.13;5154851;27;20200;-81
2021/10/23 04:30:21;;;;;;;8.50;1.70;;;;;;;-145.69;100.00;73090.16;5154870;27;20211;-81
2021/10/23 04:32:47;;;;;;;4.53;1.37;;;;;;;-145.69;100.00;73086.19;5154880;27;20195;-81
2021/10/23 04:35:14;;;;;;;2.40;1.40;;;;;;;-145.69;100.00;73086.19;5154753;27;20586;-81
2021/10/23 04:37:42;;;;;;;5.87;1.80;;;;;;;-145.69;100.00;73086.19;5154820;27;20256;-80
2021/10/23 04:40:09;;;;;;;6.47;1.93;;;;;;;-145.69;100.00;73088.16;5154796;27;20232;-82
2021/10/23 04:42:36;;;;;;;4.53;1.50;;;;;;;-145.69;100.00;73074.22;5154653;27;20239;-81
2021/10/23 04:45:02;;;;;;;5.03;1.83;;;;;;;-145.69;100.00;73084.19;5154840;27;20196;-81
2021/10/23 04:47:30;;;;;;;7.60;1.83;;;;;;;-145.69;100.00;73086.19;5154596;27;20681;-82
2021/10/23 04:49:57;;;;;;;5.20;1.50;;;;;;;-145.69;100.00;73088.16;5154864;27;20282;-81
2021/10/23 04:52:23;;;;;;;6.07;1.90;;;;;;;-145.69;100.00;73094.13;5154789;27;20228;-81
2021/10/23 04:54:50;;;;;;;4.03;1.70;;;;;;;-145.69;100.00;73092.16;5154687;27;20224;-81
2021/10/23 04:57:16;;;;;;;4.50;1.50;;;;;;;-145.69;100.00;73090.16;5154763;27;20306;-81
2021/10/23 04:59:43;;;;;;;7.80;2.53;;;;;;;-145.69;100.00;73094.13;5155051;27;20200;-81
2021/10/23 05:02:09;;;;;;;8.40;2.33;;;;;;;-145.69;100.00;73094.13;5155258;27;20215;-81
2021/10/23 05:04:37;;;;;;;9.90;2.77;;;;;;;-145.69;100.00;73088.16;5155074;27;20296;-81
2021/10/23 05:07:04;;;;;;;7.03;1.80;;;;;;;-145.69;100.00;73090.16;5154783;27;20207;-81
2021/10/23 05:09:30;;;;;;;4.73;1.90;;;;;;;-145.69;100.00;73090.16;5154623;27;20225;-82
2021/10/23 05:11:57;;;;;;;6.40;2.20;;;;;;;-145.69;100.00;73096.13;5154705;27;20200;-82
2021/10/23 05:14:23;;;;;;;7.70;2.00;;;;;;;-145.69;100.00;73102.09;5157744;27;20219;-82
2021/10/23 05:16:50;;;;;;;7.80;1.80;;;;;;;-145.69;100.00;73098.13;5158955;27;20207;-82
2021/10/23 05:19:17;;;;;;;12.07;2.30;;;;;;;-145.69;100.00;73102.09;5158868;27;20192;-81
2021/10/23 05:21:47;;;;;;;6.17;2.40;;;;;;;-145.69;100.00;73102.09;5158891;27;20196;-81
2021/10/23 05:24:14;;;;;;;5.70;1.83;;;;;;;-145.69;100.00;73096.13;5158574;27;20207;-82
2021/10/23 05:26:40;;;;;;;9.37;2.20;;;;;;;-145.69;100.00;73098.13;5158764;27;20192;-81
2021/10/23 05:29:10;;;;;;;6.17;2.20;;;;;;;-145.69;100.00;73106.09;5158492;27;20196;-81
2021/10/23 05:31:36;;;;;;;9.17;1.97;;;;;;;-145.69;100.00;73106.09;5158462;27;20654;-82
2021/10/23 05:34:12;;;;;;;5.17;1.77;;;;;;;-145.69;100.00;73108.06;5158414;27;20224;-81
2021/10/23 05:36:39;;;;;;;6.80;1.90;;;;;;;-145.69;100.00;73110.06;5158390;27;20279;-81
2021/10/23 05:39:09;;;;;;;5.60;2.10;;;;;;;-145.69;100.00;73118.03;5158560;27;20200;-81
2021/10/23 05:41:38;;;;;;;5.23;2.47;;;;;;;-145.69;100.00;73108.06;5158198;27;20233;-81
2021/10/23 05:44:07;;;;;;;7.77;1.87;;;;;;;-145.69;100.00;73104.09;5158307;27;20220;-80
2021/10/23 05:46:36;;;;;;;6.43;1.90;;;;;;;-145.69;100.00;73106.09;5158044;27;20204;-81
2021/10/23 05:49:10;;;;;;;6.03;2.00;;;;;;;-145.69;100.00;73110.06;5157791;27;20436;-81
2021/10/23 05:51:36;;;;;;;8.23;2.10;;;;;;;-145.69;100.00;73108.06;5157890;27;20315;-81
2021/10/23 05:54:05;;;;;;;6.30;2.00;;;;;;;-145.69;100.00;73118.03;5157630;27;20560;-81
2021/10/23 05:56:35;;;;;;;10.93;2.00;;;;;;;-145.69;100.00;73114.03;5157934;27;20200;-81
2021/10/23 05:59:11;;;;;;;9.23;1.93;;;;;;;-145.69;100.00;73106.09;5157568;27;20203;-81
2021/10/23 06:01:42;;;;;;;4.57;1.67;;;;;;;-145.69;100.00;73098.13;5157856;27;20206;-81
2021/10/23 06:04:10;;;;;;;5.90;2.00;;;;;;;-145.69;100.00;73094.13;5158009;27;20299;-81
2021/10/23 06:06:45;;;;;;;5.13;1.83;;;;;;;-145.69;100.00;73100.09;5157850;27;20231;-81
2021/10/23 06:09:17;;;;;;;9.43;2.40;;;;;;;-145.69;100.00;73102.09;5157837;27;20208;-80
2021/10/23 06:11:49;;;;;;;8.40;1.87;;;;;;;-145.69;100.00;73106.09;5156530;27;20603;-81
2021/10/23 06:14:20;;;;;;;10.23;2.10;;;;;;;-145.69;100.00;73090.16;5155514;27;20315;-80
2021/10/23 06:16:48;;;;;;;6.90;1.63;;;;;;;-145.69;100.00;73086.19;5157835;27;20625;-82
2021/10/23 06:19:15;;;;;;;9.37;2.07;;;;;;;-145.69;100.00;73082.19;5157707;27;20196;-81
2021/10/23 06:21:44;;;;;;;5.67;1.80;;;;;;;-145.69;100.00;73078.22;5157491;27;20251;-82
2021/10/23 06:24:13;;;;;;;8.90;1.87;;;;;;;-145.69;100.00;73070.25;5156949;27;20291;-82
2021/10/23 06:26:40;;;;;;;5.23;1.80;;;;;;;-145.69;100.00;73068.25;5157114;27;20204;-82
2021/10/23 06:29:10;;;;;;;3.53;1.70;;;;;;;-145.69;100.00;73076.22;5157187;27;20787;-81
2021/10/23 06:31:39;;;;;;;7.00;1.77;;;;;;;-145.69;100.00;73074.22;5157331;27;20200;-81
2021/10/23 06:34:05;;;;;;;4.37;1.30;;;;;;;-145.69;100.00;73066.25;5157114;27;20633;-82
2021/10/23 06:36:41;;;;;;;4.90;1.60;;;;;;;-145.69;100.00;73062.28;5157297;27;20196;-81
2021/10/23 06:39:10;;;;;;;8.13;1.60;;;;;;;-145.69;100.00;73062.28;5157114;27;20192;-81
2021/10/23 06:41:40;;;;;;;7.33;1.90;;;;;;;-145.69;100.00;73056.31;5157453;27;20212;-80
2021/10/23 06:44:10;;;;;;;5.83;1.87;;;;;;;-145.69;100.00;73058.31;5157232;27;20269;-80
2021/10/23 06:46:37;;;;;;;6.00;1.50;;;;;;;-145.69;100.00;73058.31;5157143;27;20204;-81
2021/10/23 06:49:04;;;;;;;7.00;1.40;;;;;;;-145.69;100.00;73050.34;5156945;27;20200;-80
2021/10/23 06:51:37;;;;;;;5.03;1.80;;;;;;;-145.69;100.00;73044.38;5156678;27;20762;-81
2021/10/23 06:54:06;;;;;;;3.40;1.43;;;;;;;-145.69;100.00;73036.41;5157017;27;20199;-80
2021/10/23 06:56:41;;;;;;;6.40;1.53;;;;;;;-145.69;100.00;73026.44;5156803;27;20657;-80
2021/10/23 06:59:09;;;;;;;4.57;1.60;;;;;;;-145.69;100.00;73010.53;5156954;27;20196;-80
2021/10/23 07:01:35;;;;;;;5.97;1.57;;;;;;;-145.69;100.00;73008.53;5156786;27;20204;-80
2021/10/23 07:04:05;;;;;;;4.43;1.30;;;;;;;-145.69;100.00;72986.63;5156577;27;20646;-80
2021/10/23 07:06:31;;;;;;;6.30;1.53;;;;;;;-145.69;100.00;72974.69;5156870;27;20196;-80
2021/10/23 07:09:00;;;;;;;2.33;1.30;;;;;;;-145.69;100.00;72954.78;5156565;27;20203;-80
2021/10/23 07:11:27;;;;;;;6.00;1.37;;;;;;;-145.69;100.00;72930.91;5156578;27;20207;-81
2021/10/23 07:13:56;;;;;;;5.90;1.43;;;;;;;-145.69;100.00;72918.97;5156456;27;20192;-80
2021/10/23 07:16:24;;;;;;;8.43;1.60;;;;;;;-145.69;100.00;72907.00;5156370;27;20192;-80
2021/10/23 07:18:50;;;;;;;4.07;1.50;;;;;;;-145.69;100.00;72909.00;5156164;27;20200;-79
2021/10/23 07:21:20;;;;;;;4.13;1.50;;;;;;;-145.69;100.00;72903.03;5156419;27;20207;-80
2021/10/23 07:23:46;;;;;;;3.13;1.40;;;;;;;-145.69;100.00;72875.16;5156302;27;20200;-79
2021/10/23 07:26:13;;;;;;;4.30;1.33;;;;;;;-145.69;100.00;72861.22;5156353;27;20269;-79
2021/10/23 07:28:39;;;;;;;4.80;1.30;;;;;;;-145.69;100.00;72861.22;5156180;27;20554;-78
2021/10/23 07:31:06;;;;;;;8.77;1.67;;;;;;;-145.69;100.00;72843.31;5156061;27;20646;-78
2021/10/23 07:33:34;;;;;;;4.50;1.30;;;;;;;-145.69;100.00;72831.38;5156029;27;20211;-78
2021/10/23 07:36:00;;;;;;;5.40;1.50;;;;;;;-145.69;100.00;72817.44;5155238;27;20224;-79
2021/10/23 07:38:27;;;;;;;9.67;1.70;;;;;;;-145.69;100.00;72803.50;5156058;27;20200;-79
2021/10/23 07:40:53;;;;;;;7.83;1.57;;;;;;;-145.69;100.00;72779.63;5156009;27;20196;-79
2021/10/23 07:43:20;;;;;;;7.90;1.20;;;;;;;-145.69;100.00;72767.69;5156011;27;20200;-79
2021/10/23 07:45:49;;;;;;;3.93;1.13;;;;;;;-145.69;100.00;72821.41;5155776;27;20192;-79
2021/10/23 07:48:17;;;;;;;4.73;1.20;;;;;;;-145.69;99.75;72767.69;5155453;27;20558;-78
2021/10/23 07:50:45;;;;;;;3.53;1.30;;;;;;;-145.69;98.69;72739.81;5155610;27;20200;-78
2021/10/23 07:53:11;;;;;;;2.27;1.03;;;;;;;-145.69;95.37;72703.97;5155778;27;20204;-78
2021/10/23 07:55:38;;;;;;;3.57;1.10;;;;;;;-145.69;94.58;72680.09;5155627;27;20227;-76
2021/10/23 07:58:05;;;;;;;6.77;1.20;;;;;;;-145.69;91.96;72646.25;5155351;27;20264;-76
2021/10/23 08:00:31;;;;;;;1.80;0.87;;;;;;;-145.69;91.66;72640.28;5155362;27;20246;-77
2021/10/23 08:02:59;;;;;;;4.90;1.00;;;;;;;-145.69;89.77;72620.38;5155725;27;20260;-76
2021/10/23 08:05:26;;;;;;;7.60;1.10;;;;;;;-145.69;86.16;72640.28;5135842;27;20197;-79
2021/10/23 08:07:55;;;;;;;5.50;1.03;;;;;;;-145.69;83.70;72646.25;5134700;27;20265;-76
2021/10/23 08:10:23;;;;;;;4.03;1.03;;;;;;;-145.69;88.36;72640.28;5134544;27;20544;-77
2021/10/23 08:12:50;;;;;;;4.77;1.53;;;;;;;-145.69;87.68;72656.22;5134420;27;20257;-78
2021/10/23 08:15:17;;;;;;;6.53;1.20;;;;;;;-145.69;84.21;72656.22;5139913;27;20224;-79
2021/10/23 08:17:44;;;;;;;2.73;0.93;;;;;;;-145.69;83.04;72644.25;5155138;27;20192;-76
2021/10/23 08:20:12;;;;;;;6.23;1.10;;;;;;;-145.69;80.60;72608.44;5155043;27;20295;-77
2021/10/23 08:22:41;;;;;;;2.17;1.07;;;;;;;-145.69;79.17;72574.59;5154883;27;20252;-79
2021/10/23 08:25:11;;;;;;;1.73;0.80;;;;;;;-145.69;77.97;72564.66;5154849;27;20200;-80
2021/10/23 08:27:40;;;;;;;7.97;1.00;;;;;;;-145.69;76.29;72606.44;5154745;27;20327;-80
2021/10/23 08:30:09;;;;;;;11.37;1.30;;;;;;;-145.69;78.49;72596.50;5154976;27;20203;-78
2021/10/23 08:32:35;;;;;;;4.23;1.10;;;;;;;-145.69;76.62;72578.56;5154774;27;20678;-78
2021/10/23 08:35:02;;;;;;;5.75;1.10;;;;;;;-145.69;78.29;72572.59;5154192;27;20447;-79
2021/10/23 08:37:28;;;;;;;3.83;1.20;;;;;;;-145.69;77.30;72560.66;5154720;27;20559;-79
2021/10/23 08:39:57;;;;;;;8.07;0.93;;;;;;;-145.69;80.30;72600.47;5154540;27;20199;-79
2021/10/23 08:42:27;;;;;;;4.03;1.33;;;;;;;-145.69;79.14;72632.31;5154803;27;20218;-79
2021/10/23 08:44:56;;;;;;;6.13;1.10;;;;;;;-145.69;78.38;72658.19;5154691;27;20256;-76
2021/10/23 08:47:25;;;;;;;5.27;1.00;;;;;;;-145.69;80.39;72630.31;5154212;27;20593;-78
2021/10/23 08:49:52;;;;;;;5.07;1.10;;;;;;;-145.69;76.29;72626.34;5154260;27;20563;-75
2021/10/23 08:52:18;;;;;;;5.00;1.10;;;;;;;-145.69;76.28;72646.25;5154202;27;20227;-77
2021/10/23 08:54:45;;;;;;;3.57;1.00;;;;;;;-145.69;75.09;72632.31;5154205;27;20225;-79
2021/10/23 08:57:11;;;;;;;2.43;1.10;;;;;;;-145.69;75.81;72626.34;5154666;27;20251;-78
2021/10/23 08:59:40;;;;;;;6.70;1.00;;;;;;;-145.69;73.39;72570.63;5154422;27;20207;-77
2021/10/23 09:02:10;;;;;;;1.90;0.93;;;;;;;-145.69;74.32;72536.78;5154623;27;20192;-76
2021/10/23 09:04:38;;;;;;;2.40;1.10;;;;;;;-145.69;75.28;72536.78;5154524;27;20204;-77
2021/10/23 09:07:09;;;;;;;5.13;1.10;;;;;;;-145.69;73.90;72483.03;5154360;27;20257;-76
2021/10/23 09:09:45;;;;;;;6.63;2.33;;;;;;;-145.69;74.84;72465.13;5154504;27;20200;-76
2021/10/23 09:12:23;;;;;;;5.87;1.17;;;;;;;-145.69;71.53;72443.22;5154592;27;20252;-77
2021/10/23 09:15:00;;;;;;;2.93;1.00;;;;;;;-145.69;69.09;72425.31;5154244;27;20195;-77
2021/10/23 09:17:29;;;;;;;5.80;1.47;;;;;;;-145.69;73.92;72421.34;5154378;27;20203;-76
2021/10/23 09:19:58;;;;;;;5.73;1.23;;;;;;;-145.69;68.79;72391.47;5154354;27;20675;-75
2021/10/23 09:22:32;;;;;;;1.67;0.83;;;;;;;-145.69;67.59;72409.38;5154346;27;20222;-76
2021/10/23 09:25:20;;;;;;;4.53;1.27;;;;;;;-145.69;65.27;72401.44;5154130;27;20210;-76
2021/10/23 09:28:00;;;;;;;4.90;1.13;;;;;;;-145.69;61.39;72389.50;5154258;27;20650;-76
2021/10/23 09:30:34;;;;;;;3.33;0.87;;;;;;;-145.69;60.60;72413.38;5154423;27;20225;-76
2021/10/23 09:33:06;;;;;;;2.50;0.60;;;;;;;-145.69;58.63;72409.38;5154317;27;20214;-76
2021/10/23 09:35:35;;;;;;;2.87;0.70;;;;;;;-145.69;60.04;72393.47;5154148;27;20228;-76
2021/10/23 09:38:04;;;;;;;2.73;0.70;;;;;;;-145.69;60.33;72377.53;5154000;27;20646;-75
2021/10/23 09:40:34;;;;;;;3.07;1.00;;;;;;;-145.69;58.09;72363.63;5154086;27;20262;-76
2021/10/23 09:43:10;;;;;;;3.60;0.77;;;;;;;-145.69;59.86;72379.53;5152938;27;20196;-75
2021/10/23 09:45:39;;;;;;;5.83;1.40;;;;;;;-145.69;62.83;72349.69;5153973;27;20226;-75
2021/10/23 09:48:07;;;;;;;5.00;2.03;;;;;;;-145.69;67.58;72387.50;5154062;27;20200;-76
2021/10/23 09:50:36;;;;;;;5.27;1.90;;;;;;;-145.69;72.28;72477.06;5154084;27;20211;-78
2021/10/23 09:53:07;;;;;;;7.30;1.60;;;;;;;-145.69;73.35;72449.19;5153803;27;20228;-75
2021/10/23 09:55:34;;;;;;;7.23;1.93;;;;;;;-145.69;72.96;72449.19;5154041;27;20220;-75
2021/10/23 09:58:18;;;;;;;9.60;2.27;;;;;;;-145.69;73.77;72437.25;5153980;27;20192;-76
2021/10/23 10:00:47;;;;;;;6.73;1.87;;;;;;;-145.69;75.45;72427.31;5157313;27;20203;-75
2021/10/23 10:03:16;;;;;;;6.23;2.00;;;;;;;-145.69;74.83;72425.31;5157591;27;20200;-76
2021/10/23 10:05:43;;;;;;;7.07;2.40;;;;;;;-145.69;74.27;72407.41;5157851;27;20305;-74
2021/10/23 10:08:11;;;;;;;3.30;1.30;;;;;;;-145.69;70.02;72413.38;5157825;27;20602;-75
2021/10/23 10:10:40;;;;;;;3.27;1.03;;;;;;;-145.69;69.05;72407.41;5157656;27;20192;-75
2021/10/23 10:13:11;;;;;;;4.67;1.33;;;;;;;-145.69;70.95;72393.47;5157595;27;20199;-75
2021/10/23 10:15:39;;;;;;;2.50;1.07;;;;;;;-145.69;67.87;72389.50;5157345;27;20220;-75
2021/10/23 10:18:08;;;;;;;8.90;1.07;;;;;;;-145.69;63.61;72367.59;5157413;27;20669;-75
2021/10/23 10:20:37;;;;;;;5.80;1.03;;;;;;;-145.69;65.74;72385.50;5157548;27;20204;-75
2021/10/23 10:23:05;;;;;;;5.93;1.63;;;;;;;-145.69;65.63;72429.28;5153603;27;20597;-75
2021/10/23 10:25:32;;;;;;;2.43;0.90;;;;;;;-145.69;63.96;72461.13;5157041;27;20704;-76
2021/10/23 10:28:09;;;;;;;17.07;7.80;;;;;;;-145.69;61.97;72512.91;5157325;27;20204;-75
2021/10/23 10:30:37;;;;;;;0.80;0.70;;;;;;;-145.69;62.75;72512.91;5157169;27;20284;-75
2021/10/23 10:33:27;;;;;;;1.47;0.70;;;;;;;-145.69;64.29;72508.91;5157299;27;20207;-76
2021/10/23 10:36:17;;;;;;;1.37;0.53;;;;;;;-145.69;61.60;72526.81;5157004;27;20315;-76
2021/10/23 10:44:20;;;;;;;2.13;0.70;;;;;;;-145.69;59.45;72506.91;5114378;27;20668;-76
2021/10/23 10:47:17;;;;;;;2.67;0.60;;;;;;;-145.69;61.49;72461.13;5156806;27;20200;-76
2021/10/23 10:49:55;;;;;;;1.38;0.63;;;;;;;-145.69;57.17;72429.28;5156146;27;20428;-76
2021/10/23 10:52:54;;;;;;;3.50;0.70;;;;;;;-145.69;56.20;72373.56;5156326;27;20235;-75
2021/10/23 10:55:21;;;;;;;2.43;0.97;;;;;;;-145.69;58.59;72401.44;5129833;27;20654;-76
2021/10/23 10:57:59;;;;;;;2.73;0.80;;;;;;;-145.69;59.10;72373.56;5156762;27;20200;-75
2021/10/23 11:01:13;;;;;;;1.50;0.70;;;;;;;-145.69;60.11;72385.50;5150080;27;20211;-74
2021/10/23 11:03:43;;;;;;;4.27;0.90;;;;;;;-145.69;59.81;72399.44;5156419;27;20200;-75
2021/10/23 11:06:55;;;;;;;1.20;0.60;;;;;;;-145.69;60.99;72413.38;5156172;27;20653;-76
2021/10/23 11:09:46;;;;;;;5.93;1.10;;;;;;;-145.69;60.17;72413.38;5156428;27;20199;-74
2021/10/23 11:12:16;;;;;;;1.03;0.70;;;;;;;-145.69;63.04;72425.31;5156071;27;20200;-75
2021/10/23 11:14:44;;;;;;;5.80;0.87;;;;;;;-145.69;61.44;72453.19;5156317;27;20203;-74
2021/10/23 11:17:21;;;;;;;1.90;0.63;;;;;;;-145.69;57.53;72457.16;5156065;27;20231;-75
2021/10/23 11:19:54;;;;;;;1.10;0.57;;;;;;;-145.69;60.59;72479.06;5156095;27;20199;-75
2021/10/23 11:22:23;;;;;;;2.83;0.60;;;;;;;-145.69;58.56;72473.09;5156173;27;20291;-75
2021/10/23 11:24:55;;;;;;;0.87;0.40;;;;;;;-145.69;56.83;72471.09;5155929;27;20215;-75